sensor_id;sensor_type;location;lat;lon;timestamp;pressure;altitude;pressure_sealevel;temperature;humidity
74435;BME280;62867;52.038;29.256;2022-09-01T00:03:45;1023.7;;;12.1;63.8
74435;BME280;62867;52.038;29.256;2022-09-01T00:08:32;1023.7;;;12;63.9
74435;BME280;62867;52.038;29.256;2022-09-01T00:13:34;1023.7;;;12;64
74435;BME280;62867;52.038;29.256;2022-09-01T00:18:33;1023.6;;;11.9;64.1
74435;BME280;62867;52.038;29.256;2022-09-01T00:23:25;1023.6;;;11.9;64.1
74435;BME280;62867;52.038;29.256;2022-09-01T00:28:12;1023.7;;;11.9;64.2
74435;BME280;62867;52.038;29.256;2022-09-01T00:33:31;1023.6;;;11.9;64.5
74435;BME280;62867;52.038;29.256;2022-09-01T00:38:12;1023.6;;;11.9;64.4
74435;BME280;62867;52.038;29.256;2022-09-01T00:43:14;1023.7;;;11.9;64.5
74435;BME280;62867;52.038;29.256;2022-09-01T00:48:33;1023.6;;;11.9;64.3
74435;BME280;62867;52.038;29.256;2022-09-01T00:53:46;1023.6;;;11.8;64.4
74435;BME280;62867;52.038;29.256;2022-09-01T00:58:33;1023.6;;;11.8;64.3
74435;BME280;62867;52.038;29.256;2022-09-01T01:03:22;1023.6;;;11.8;64.6
74435;BME280;62867;52.038;29.256;2022-09-01T01:08:16;1023.7;;;11.8;64.7
74435;BME280;62867;52.038;29.256;2022-09-01T01:13:49;1023.6;;;11.8;64.7
74435;BME280;62867;52.038;29.256;2022-09-01T01:18:47;1023.6;;;11.8;65.4
74435;BME280;62867;52.038;29.256;2022-09-01T01:23:29;1023.6;;;11.9;65.8
74435;BME280;62867;52.038;29.256;2022-09-01T01:28:06;1023.6;;;12;65.9
74435;BME280;62867;52.038;29.256;2022-09-01T01:33:05;1023.6;;;12.1;66.1
74435;BME280;62867;52.038;29.256;2022-09-01T01:38:33;1023.7;;;12.2;66
74435;BME280;62867;52.038;29.256;2022-09-01T01:43:05;1023.7;;;12.3;65.7
74435;BME280;62867;52.038;29.256;2022-09-01T01:48:13;1023.7;;;12.4;65.7
74435;BME280;62867;52.038;29.256;2022-09-01T01:53:37;1023.7;;;12.5;65.6
74435;BME280;62867;52.038;29.256;2022-09-01T01:58:46;1023.7;;;12.5;65.3
74435;BME280;62867;52.038;29.256;2022-09-01T02:03:33;1023.6;;;12.5;65.1
74435;BME280;62867;52.038;29.256;2022-09-01T02:08:45;1023.6;;;12.5;64.9
74435;BME280;62867;52.038;29.256;2022-09-01T02:13:47;1023.6;;;12.5;64.9
74435;BME280;62867;52.038;29.256;2022-09-01T02:18:14;1023.7;;;12.5;64.9
74435;BME280;62867;52.038;29.256;2022-09-01T02:23:13;1023.7;;;12.5;65.2
74435;BME280;62867;52.038;29.256;2022-09-01T02:28:23;1023.7;;;12.6;65.3
74435;BME280;62867;52.038;29.256;2022-09-01T02:33:47;1023.7;;;12.7;65.2
74435;BME280;62867;52.038;29.256;2022-09-01T02:38:33;1023.7;;;12.7;64.5
74435;BME280;62867;52.038;29.256;2022-09-01T02:43:33;1023.6;;;12.7;64.5
74435;BME280;62867;52.038;29.256;2022-09-01T02:48:37;1023.6;;;12.6;64.4
74435;BME280;62867;52.038;29.256;2022-09-01T02:53:35;1023.7;;;12.5;64.4
74435;BME280;62867;52.038;29.256;2022-09-01T02:58:27;1023.7;;;12.4;64.4
74435;BME280;62867;52.038;29.256;2022-09-01T03:03:31;1023.7;;;12.3;64.5
74435;BME280;62867;52.038;29.256;2022-09-01T03:08:06;1023.7;;;12.2;64.7
74435;BME280;62867;52.038;29.256;2022-09-01T03:13:11;1023.8;;;12.1;64.9
74435;BME280;62867;52.038;29.256;2022-09-01T03:18:05;1023.8;;;12;64.9
74435;BME280;62867;52.038;29.256;2022-09-01T03:23:49;1023.8;;;11.9;65.1
74435;BME280;62867;52.038;29.256;2022-09-01T03:28:35;1023.9;;;11.8;65.1
74435;BME280;62867;52.038;29.256;2022-09-01T03:33:23;1023.9;;;11.8;65.2
74435;BME280;62867;52.038;29.256;2022-09-01T03:38:25;1023.9;;;11.7;65.4
74435;BME280;62867;52.038;29.256;2022-09-01T03:43:47;1024;;;11.7;65.4
74435;BME280;62867;52.038;29.256;2022-09-01T03:48:48;1024;;;11.7;65.3
74435;BME280;62867;52.038;29.256;2022-09-01T03:53:27;1024;;;11.7;65.4
74435;BME280;62867;52.038;29.256;2022-09-01T03:58:06;1024;;;11.8;65.8
74435;BME280;62867;52.038;29.256;2022-09-01T04:03:13;1024;;;11.8;65.8
74435;BME280;62867;52.038;29.256;2022-09-01T04:08:13;1024.1;;;12;66
74435;BME280;62867;52.038;29.256;2022-09-01T04:13:05;1024.1;;;12.1;66.1
74435;BME280;62867;52.038;29.256;2022-09-01T04:18:05;1024;;;12.3;65.9
74435;BME280;62867;52.038;29.256;2022-09-01T04:23:37;1024.1;;;12.6;65.7
74435;BME280;62867;52.038;29.256;2022-09-01T04:28:40;1024;;;13;65
74435;BME280;62867;52.038;29.256;2022-09-01T04:33:05;1024;;;13.2;65.1
74435;BME280;62867;52.038;29.256;2022-09-01T04:38:47;1024;;;13.3;64.7
74435;BME280;62867;52.038;29.256;2022-09-01T04:43:39;1024;;;13.7;63.7
74435;BME280;62867;52.038;29.256;2022-09-01T04:48:05;1024;;;14;63.3
74435;BME280;62867;52.038;29.256;2022-09-01T04:53:05;1023.9;;;14.3;62.2
74435;BME280;62867;52.038;29.256;2022-09-01T04:58:05;1023.9;;;14.7;61.6
74435;BME280;62867;52.038;29.256;2022-09-01T05:03:49;1023.9;;;14.9;60.3
74435;BME280;62867;52.038;29.256;2022-09-01T05:08:35;1023.9;;;15.2;59.7
74435;BME280;62867;52.038;29.256;2022-09-01T05:13:47;1023.9;;;15.4;58.2
74435;BME280;62867;52.038;29.256;2022-09-01T05:18:33;1023.8;;;15.7;58.2
74435;BME280;62867;52.038;29.256;2022-09-01T05:23:39;1023.8;;;16;57.5
74435;BME280;62867;52.038;29.256;2022-09-01T05:28:25;1023.8;;;16.2;57.1
74435;BME280;62867;52.038;29.256;2022-09-01T05:33:31;1023.8;;;16.5;56.5
74435;BME280;62867;52.038;29.256;2022-09-01T05:38:05;1023.8;;;16.7;56.9
74435;BME280;62867;52.038;29.256;2022-09-01T05:43:05;1023.9;;;16.9;55.6
74435;BME280;62867;52.038;29.256;2022-09-01T05:48:13;1023.9;;;17;54.8
74435;BME280;62867;52.038;29.256;2022-09-01T05:53:49;1023.9;;;17.1;53.1
74435;BME280;62867;52.038;29.256;2022-09-01T05:58:47;1023.9;;;17.3;52.7
74435;BME280;62867;52.038;29.256;2022-09-01T06:03:23;1023.9;;;17.4;51.6
74435;BME280;62867;52.038;29.256;2022-09-01T06:08:05;1023.9;;;17.5;50.7
74435;BME280;62867;52.038;29.256;2022-09-01T06:13:49;1023.9;;;17.6;51
74435;BME280;62867;52.038;29.256;2022-09-01T06:18:47;1023.9;;;17.8;51.3
74435;BME280;62867;52.038;29.256;2022-09-01T06:23:13;1023.9;;;18;50.5
74435;BME280;62867;52.038;29.256;2022-09-01T06:28:13;1024;;;18.1;50.3
74435;BME280;62867;52.038;29.256;2022-09-01T06:33:11;1024;;;18.3;50.2
74435;BME280;62867;52.038;29.256;2022-09-01T06:38:39;1024;;;18.4;50.5
74435;BME280;62867;52.038;29.256;2022-09-01T06:43:21;1024;;;18.6;49.8
74435;BME280;62867;52.038;29.256;2022-09-01T06:48:13;1024;;;18.7;48.2
74435;BME280;62867;52.038;29.256;2022-09-01T06:53:27;1024;;;18.9;48.1
74435;BME280;62867;52.038;29.256;2022-09-01T06:58:37;1024.1;;;19.1;46.9
74435;BME280;62867;52.038;29.256;2022-09-01T07:03:23;1024.1;;;19.2;46.2
74435;BME280;62867;52.038;29.256;2022-09-01T07:08:47;1024.1;;;19.3;45.1
74435;BME280;62867;52.038;29.256;2022-09-01T07:13:39;1024.1;;;19.4;45.1
74435;BME280;62867;52.038;29.256;2022-09-01T07:18:05;1024.1;;;19.6;45
74435;BME280;62867;52.038;29.256;2022-09-01T07:23:05;1024.1;;;19.8;45
74435;BME280;62867;52.038;29.256;2022-09-01T07:28:15;1024.1;;;20.1;44.1
74435;BME280;62867;52.038;29.256;2022-09-01T07:33:47;1024.1;;;20.3;43.6
74435;BME280;62867;52.038;29.256;2022-09-01T07:38:35;1024.1;;;20.6;43
74435;BME280;62867;52.038;29.256;2022-09-01T07:43:49;1024.1;;;20.8;42.7
74435;BME280;62867;52.038;29.256;2022-09-01T07:48:37;1024.1;;;21;41.5
74435;BME280;62867;52.038;29.256;2022-09-01T07:53:41;1024.1;;;21.2;40.3
74435;BME280;62867;52.038;29.256;2022-09-01T07:58:29;1024.1;;;21.3;39
74435;BME280;62867;52.038;29.256;2022-09-01T08:03:27;1024.1;;;21.5;38.5
74435;BME280;62867;52.038;29.256;2022-09-01T08:08:35;1024;;;21.7;38.1
74435;BME280;62867;52.038;29.256;2022-09-01T08:13:05;1024;;;21.9;38.1
74435;BME280;62867;52.038;29.256;2022-09-01T08:18:15;1024;;;22.1;37.9
74435;BME280;62867;52.038;29.256;2022-09-01T08:23:25;1024;;;22.3;37.6
74435;BME280;62867;52.038;29.256;2022-09-01T08:28:49;1023.9;;;22.4;37.1
74435;BME280;62867;52.038;29.256;2022-09-01T08:33:33;1023.9;;;22.6;37.2
74435;BME280;62867;52.038;29.256;2022-09-01T08:38:27;1023.9;;;22.7;36.9
74435;BME280;62867;52.038;29.256;2022-09-01T08:43:33;1023.9;;;22.9;36.2
74435;BME280;62867;52.038;29.256;2022-09-01T08:48:50;1023.8;;;23;35
74435;BME280;62867;52.038;29.256;2022-09-01T08:53:57;1023.8;;;23.2;34
74435;BME280;62867;52.038;29.256;2022-09-01T08:58:28;1023.8;;;23.2;33.6
74435;BME280;62867;52.038;29.256;2022-09-01T09:03:20;1023.8;;;23.3;33.4
74435;BME280;62867;52.038;29.256;2022-09-01T09:08:14;1023.8;;;23.4;33.1
74435;BME280;62867;52.038;29.256;2022-09-01T09:13:53;1023.8;;;23.5;33.5
74435;BME280;62867;52.038;29.256;2022-09-01T09:18:30;1023.8;;;23.6;33.1
74435;BME280;62867;52.038;29.256;2022-09-01T09:23:10;1023.7;;;23.7;33
74435;BME280;62867;52.038;29.256;2022-09-01T09:28:39;1023.7;;;23.8;33.6
74435;BME280;62867;52.038;29.256;2022-09-01T09:33:41;1023.7;;;24;33.6
74435;BME280;62867;52.038;29.256;2022-09-01T09:38:37;1023.7;;;24.2;33.5
74435;BME280;62867;52.038;29.256;2022-09-01T09:43:55;1023.7;;;24.4;33.5
74435;BME280;62867;52.038;29.256;2022-09-01T09:49:04;1023.7;;;24.6;32.7
74435;BME280;62867;52.038;29.256;2022-09-01T09:53:36;1023.7;;;24.8;31.7
74435;BME280;62867;52.038;29.256;2022-09-01T09:58:08;1023.6;;;25.2;31.8
74435;BME280;62867;52.038;29.256;2022-09-01T10:03:37;1023.7;;;25.5;30.7
74435;BME280;62867;52.038;29.256;2022-09-01T10:08:51;1023.7;;;26.1;29.8
74435;BME280;62867;52.038;29.256;2022-09-01T10:13:37;1023.7;;;25.8;29.6
74435;BME280;62867;52.038;29.256;2022-09-01T10:18:37;1023.8;;;25.2;30.3
74435;BME280;62867;52.038;29.256;2022-09-01T10:23:35;1023.8;;;25.3;30.8
74435;BME280;62867;52.038;29.256;2022-09-01T10:28:18;1023.9;;;25.1;30.9
74435;BME280;62867;52.038;29.256;2022-09-01T10:33:27;1023.9;;;24.5;31.4
74435;BME280;62867;52.038;29.256;2022-09-01T10:38:37;1024;;;23.9;32.4
74435;BME280;62867;52.038;29.256;2022-09-01T10:43:38;1024;;;23.4;32.7
74435;BME280;62867;52.038;29.256;2022-09-01T10:48:29;1024;;;23;33.4
74435;BME280;62867;52.038;29.256;2022-09-01T10:53:46;1024;;;22.7;34.8
74435;BME280;62867;52.038;29.256;2022-09-01T10:58:59;1024;;;22.5;35.4
74435;BME280;62867;52.038;29.256;2022-09-01T11:03:35;1024;;;22.6;34.9
74435;BME280;62867;52.038;29.256;2022-09-01T11:13:22;1024;;;22.9;34.2
74435;BME280;62867;52.038;29.256;2022-09-01T11:18:52;1024;;;23.6;34.1
74435;BME280;62867;52.038;29.256;2022-09-01T11:23:49;1024;;;23.8;33.6
74435;BME280;62867;52.038;29.256;2022-09-01T11:28:36;1024;;;24.1;33.5
74435;BME280;62867;52.038;29.256;2022-09-01T11:33:33;1023.9;;;24.6;33.4
74435;BME280;62867;52.038;29.256;2022-09-01T11:38:28;1023.9;;;24.8;32.5
74435;BME280;62867;52.038;29.256;2022-09-01T11:43:23;1023.8;;;24.8;31.3
74435;BME280;62867;52.038;29.256;2022-09-01T11:48:06;1023.8;;;25;31.6
74435;BME280;62867;52.038;29.256;2022-09-01T11:53:23;1023.8;;;25;31.7
74435;BME280;62867;52.038;29.256;2022-09-01T11:58:41;1023.7;;;24.6;31.7
74435;BME280;62867;52.038;29.256;2022-09-01T12:03:51;1023.7;;;24.6;32
74435;BME280;62867;52.038;29.256;2022-09-01T12:08:38;1023.7;;;24.6;31.4
74435;BME280;62867;52.038;29.256;2022-09-01T12:13:55;1023.6;;;25.9;30.7
74435;BME280;62867;52.038;29.256;2022-09-01T12:18:54;1023.6;;;27.2;30.1
74435;BME280;62867;52.038;29.256;2022-09-01T12:23:22;1023.6;;;27;30
74435;BME280;62867;52.038;29.256;2022-09-01T12:28:17;1023.6;;;26.6;30.5
74435;BME280;62867;52.038;29.256;2022-09-01T12:33:17;1023.6;;;26.1;31
74435;BME280;62867;52.038;29.256;2022-09-01T12:38:54;1023.6;;;25.4;30.4
74435;BME280;62867;52.038;29.256;2022-09-01T12:43:39;1023.6;;;25.2;31.5
74435;BME280;62867;52.038;29.256;2022-09-01T12:48:30;1023.5;;;26.1;30.4
74435;BME280;62867;52.038;29.256;2022-09-01T12:53:35;1023.4;;;26.6;29.3
74435;BME280;62867;52.038;29.256;2022-09-01T12:58:46;1023.4;;;26;31.2
74435;BME280;62867;52.038;29.256;2022-09-01T13:03:27;1023.5;;;25.4;30.7
74435;BME280;62867;52.038;29.256;2022-09-01T13:08:41;1023.5;;;24.7;31.8
74435;BME280;62867;52.038;29.256;2022-09-01T13:13:55;1023.5;;;24.1;32.4
74435;BME280;62867;52.038;29.256;2022-09-01T13:18:37;1023.6;;;23.6;33
74435;BME280;62867;52.038;29.256;2022-09-01T13:23:05;1023.6;;;23.4;34.6
74435;BME280;62867;52.038;29.256;2022-09-01T13:28:53;1023.6;;;23.3;34.4
74435;BME280;62867;52.038;29.256;2022-09-01T13:33:49;1023.6;;;23.1;35.3
74435;BME280;62867;52.038;29.256;2022-09-01T13:38:29;1023.7;;;22.8;35.4
74435;BME280;62867;52.038;29.256;2022-09-01T13:43:16;1023.7;;;22.4;37.3
74435;BME280;62867;52.038;29.256;2022-09-01T13:48:54;1023.8;;;21.8;37.2
74435;BME280;62867;52.038;29.256;2022-09-01T13:53:53;1023.8;;;21.3;39
74435;BME280;62867;52.038;29.256;2022-09-01T13:58:27;1023.8;;;20.8;40.4
74435;BME280;62867;52.038;29.256;2022-09-01T14:03:15;1023.7;;;20.5;40.8
74435;BME280;62867;52.038;29.256;2022-09-01T14:08:17;1023.7;;;20.1;41.6
74435;BME280;62867;52.038;29.256;2022-09-01T14:13:05;1023.7;;;19.8;41.9
74435;BME280;62867;52.038;29.256;2022-09-01T14:18:27;1023.7;;;19.6;42.1
74435;BME280;62867;52.038;29.256;2022-09-01T14:23:27;1023.7;;;19.4;42.7
74435;BME280;62867;52.038;29.256;2022-09-01T14:28:39;1023.8;;;19.1;45.2
74435;BME280;62867;52.038;29.256;2022-09-01T14:33:49;1023.8;;;19;43.8
74435;BME280;62867;52.038;29.256;2022-09-01T14:38:27;1023.8;;;19;44.7
74435;BME280;62867;52.038;29.256;2022-09-01T14:43:53;1023.8;;;19.1;45
74435;BME280;62867;52.038;29.256;2022-09-01T14:48:41;1023.8;;;19.2;45.9
74435;BME280;62867;52.038;29.256;2022-09-01T14:53:29;1023.8;;;19.3;44.7
74435;BME280;62867;52.038;29.256;2022-09-01T14:58:05;1023.8;;;19.3;44.9
74435;BME280;62867;52.038;29.256;2022-09-01T15:03:23;1023.8;;;19.3;44.7
74435;BME280;62867;52.038;29.256;2022-09-01T15:08:51;1023.9;;;19.1;45.2
74435;BME280;62867;52.038;29.256;2022-09-01T15:13:15;1023.9;;;19;45.5
74435;BME280;62867;52.038;29.256;2022-09-01T15:18:53;1023.9;;;19;45.6
74435;BME280;62867;52.038;29.256;2022-09-01T15:23:37;1023.8;;;18.9;45.9
74435;BME280;62867;52.038;29.256;2022-09-01T15:28:37;1023.9;;;18.7;46.9
74435;BME280;62867;52.038;29.256;2022-09-01T15:33:23;1023.9;;;18.5;47.1
74435;BME280;62867;52.038;29.256;2022-09-01T15:38:37;1023.9;;;18.2;47.8
74435;BME280;62867;52.038;29.256;2022-09-01T15:43:15;1023.9;;;18;47.5
74435;BME280;62867;52.038;29.256;2022-09-01T15:48:15;1023.9;;;17.8;48
74435;BME280;62867;52.038;29.256;2022-09-01T15:53:17;1023.9;;;17.6;48.8
74435;BME280;62867;52.038;29.256;2022-09-01T15:58:53;1024;;;17.4;49
74435;BME280;62867;52.038;29.256;2022-09-01T16:03:47;1024;;;17.2;49.4
74435;BME280;62867;52.038;29.256;2022-09-01T16:08:15;1024;;;17;49.4
74435;BME280;62867;52.038;29.256;2022-09-01T16:13:25;1024;;;16.9;50
74435;BME280;62867;52.038;29.256;2022-09-01T16:18:52;1024;;;16.7;51
74435;BME280;62867;52.038;29.256;2022-09-01T16:23:42;1024.1;;;16.5;51.9
74435;BME280;62867;52.038;29.256;2022-09-01T16:28:30;1024.1;;;16.3;52.5
74435;BME280;62867;52.038;29.256;2022-09-01T16:33:15;1024.2;;;16.2;52.4
74435;BME280;62867;52.038;29.256;2022-09-01T16:38:49;1024.2;;;16;53.3
74435;BME280;62867;52.038;29.256;2022-09-01T16:43:09;1024.2;;;15.9;53.3
74435;BME280;62867;52.038;29.256;2022-09-01T16:58:13;1024.4;;;15.5;53.7
74435;BME280;62867;52.038;29.256;2022-09-01T17:03:48;1024.4;;;15.3;54
74435;BME280;62867;52.038;29.256;2022-09-01T17:08:53;1024.5;;;15.2;54.3
74435;BME280;62867;52.038;29.256;2022-09-01T17:13:42;1024.5;;;15;54.8
74435;BME280;62867;52.038;29.256;2022-09-01T17:18:54;1024.5;;;14.8;55.4
74435;BME280;62867;52.038;29.256;2022-09-01T17:23:54;1024.5;;;14.6;56.1
74435;BME280;62867;52.038;29.256;2022-09-01T17:28:07;1024.6;;;14.5;56.5
74435;BME280;62867;52.038;29.256;2022-09-01T17:33:21;1024.6;;;14.4;56.7
74435;BME280;62867;52.038;29.256;2022-09-01T17:38:40;1024.7;;;14.3;57.4
74435;BME280;62867;52.038;29.256;2022-09-01T17:43:56;1024.7;;;14.3;57.4
74435;BME280;62867;52.038;29.256;2022-09-01T17:48:45;1024.7;;;14.2;57.5
74435;BME280;62867;52.038;29.256;2022-09-01T17:53:41;1024.8;;;14.1;57.6
74435;BME280;62867;52.038;29.256;2022-09-01T17:58:42;1024.8;;;14.1;57.8
74435;BME280;62867;52.038;29.256;2022-09-01T18:03:36;1024.7;;;14;57.8
74435;BME280;62867;52.038;29.256;2022-09-01T18:08:29;1024.8;;;13.9;58.1
74435;BME280;62867;52.038;29.256;2022-09-01T18:13:52;1024.8;;;13.8;58.9
74435;BME280;62867;52.038;29.256;2022-09-01T18:18:25;1024.9;;;13.7;59.3
74435;BME280;62867;52.038;29.256;2022-09-01T18:23:16;1024.9;;;13.6;59.8
74435;BME280;62867;52.038;29.256;2022-09-01T18:28:25;1024.9;;;13.6;60.1
74435;BME280;62867;52.038;29.256;2022-09-01T18:33:56;1025;;;13.5;60.5
74435;BME280;62867;52.038;29.256;2022-09-01T18:38:22;1025.1;;;13.4;60.7
74435;BME280;62867;52.038;29.256;2022-09-01T18:43:09;1025.1;;;13.4;60.6
74435;BME280;62867;52.038;29.256;2022-09-01T18:48:58;1025.1;;;13.4;60.6
74435;BME280;62867;52.038;29.256;2022-09-01T18:54:05;1025.1;;;13.3;60.6
74435;BME280;62867;52.038;29.256;2022-09-01T18:59:52;1025.2;;;13.2;60.8
74435;BME280;62867;52.038;29.256;2022-09-01T19:03:52;1025.2;;;13.2;60.8
74435;BME280;62867;52.038;29.256;2022-09-01T19:08:26;1025.2;;;13.1;61.1
74435;BME280;62867;52.038;29.256;2022-09-01T19:13:26;1025.2;;;13.1;61.6
74435;BME280;62867;52.038;29.256;2022-09-01T19:18:56;1025.3;;;13;61.8
74435;BME280;62867;52.038;29.256;2022-09-01T19:24:32;1025.3;;;12.9;62
74435;BME280;62867;52.038;29.256;2022-09-01T19:28:57;1025.4;;;12.9;62.2
74435;BME280;62867;52.038;29.256;2022-09-01T19:33:39;1025.5;;;12.8;62.3
74435;BME280;62867;52.038;29.256;2022-09-01T19:38:51;1025.5;;;12.8;62.5
74435;BME280;62867;52.038;29.256;2022-09-01T19:43:39;1025.6;;;12.8;62.5
74435;BME280;62867;52.038;29.256;2022-09-01T19:48:51;1025.7;;;12.8;62.4
74435;BME280;62867;52.038;29.256;2022-09-01T19:53:56;1025.7;;;12.8;62.4
74435;BME280;62867;52.038;29.256;2022-09-01T19:58:18;1025.7;;;12.7;62.5
74435;BME280;62867;52.038;29.256;2022-09-01T20:03:25;1025.7;;;12.7;62.4
74435;BME280;62867;52.038;29.256;2022-09-01T20:08:41;1025.8;;;12.7;62.7
74435;BME280;62867;52.038;29.256;2022-09-01T20:13:43;1025.8;;;12.6;62.7
74435;BME280;62867;52.038;29.256;2022-09-01T20:18:43;1025.9;;;12.5;62.8
74435;BME280;62867;52.038;29.256;2022-09-01T20:23:45;1025.9;;;12.5;62.7
74435;BME280;62867;52.038;29.256;2022-09-01T20:28:40;1026;;;12.4;62.6
74435;BME280;62867;52.038;29.256;2022-09-01T20:33:33;1026;;;12.4;62.7
74435;BME280;62867;52.038;29.256;2022-09-01T20:38:30;1026.1;;;12.3;62.2
74435;BME280;62867;52.038;29.256;2022-09-01T20:43:38;1026.1;;;12.3;62
74435;BME280;62867;52.038;29.256;2022-09-01T20:48:08;1026.1;;;12.3;61.6
74435;BME280;62867;52.038;29.256;2022-09-01T20:53:50;1026.1;;;12.2;61.5
74435;BME280;62867;52.038;29.256;2022-09-01T20:58:23;1026.2;;;12.1;61.3
74435;BME280;62867;52.038;29.256;2022-09-01T21:04:08;1026.2;;;12.1;61.4
74435;BME280;62867;52.038;29.256;2022-09-01T21:08:42;1026.2;;;12;61.4
74435;BME280;62867;52.038;29.256;2022-09-01T21:13:36;1026.2;;;11.9;61.3
74435;BME280;62867;52.038;29.256;2022-09-01T21:23:51;1026.2;;;11.7;61.5
74435;BME280;62867;52.038;29.256;2022-09-01T21:28:53;1026.2;;;11.6;61.4
74435;BME280;62867;52.038;29.256;2022-09-01T21:33:17;1026.3;;;11.6;61.8
74435;BME280;62867;52.038;29.256;2022-09-01T21:38:05;1026.3;;;11.5;61.7
74435;BME280;62867;52.038;29.256;2022-09-01T21:43:16;1026.3;;;11.5;61.6
74435;BME280;62867;52.038;29.256;2022-09-01T21:48:05;1026.3;;;11.4;61.6
74435;BME280;62867;52.038;29.256;2022-09-01T21:53:25;1026.3;;;11.4;61.6
74435;BME280;62867;52.038;29.256;2022-09-01T21:58:05;1026.3;;;11.4;61.5
74435;BME280;62867;52.038;29.256;2022-09-01T22:03:41;1026.3;;;11.3;61.6
74435;BME280;62867;52.038;29.256;2022-09-01T22:08:39;1026.3;;;11.2;61.7
74435;BME280;62867;52.038;29.256;2022-09-01T22:13:27;1026.3;;;11.1;62.1
74435;BME280;62867;52.038;29.256;2022-09-01T22:18:51;1026.4;;;11;62.3
74435;BME280;62867;52.038;29.256;2022-09-01T22:23:27;1026.4;;;11;62.6
74435;BME280;62867;52.038;29.256;2022-09-01T22:28:15;1026.4;;;10.9;62.9
74435;BME280;62867;52.038;29.256;2022-09-01T22:33:05;1026.5;;;10.9;63.2
74435;BME280;62867;52.038;29.256;2022-09-01T22:38:15;1026.4;;;10.9;63.1
74435;BME280;62867;52.038;29.256;2022-09-01T22:43:47;1026.5;;;10.9;63.2
74435;BME280;62867;52.038;29.256;2022-09-01T22:48:35;1026.5;;;10.9;63.1
74435;BME280;62867;52.038;29.256;2022-09-01T22:53:47;1026.5;;;10.9;63.1
74435;BME280;62867;52.038;29.256;2022-09-01T22:58:35;1026.5;;;10.8;63.1
74435;BME280;62867;52.038;29.256;2022-09-01T23:03:13;1026.5;;;10.8;63.3
74435;BME280;62867;52.038;29.256;2022-09-01T23:08:15;1026.5;;;10.7;63.6
74435;BME280;62867;52.038;29.256;2022-09-01T23:13:35;1026.5;;;10.7;63.8
74435;BME280;62867;52.038;29.256;2022-09-01T23:18:15;1026.6;;;10.6;63.8
74435;BME280;62867;52.038;29.256;2022-09-01T23:23:25;1026.6;;;10.6;64
74435;BME280;62867;52.038;29.256;2022-09-01T23:28:05;1026.6;;;10.6;64.1
74435;BME280;62867;52.038;29.256;2022-09-01T23:33:33;1026.6;;;10.6;63.6
74435;BME280;62867;52.038;29.256;2022-09-01T23:38:45;1026.6;;;10.6;63.6
74435;BME280;62867;52.038;29.256;2022-09-01T23:43:27;1026.6;;;10.6;63.3
74435;BME280;62867;52.038;29.256;2022-09-01T23:48:23;1026.7;;;10.5;63.2
74435;BME280;62867;52.038;29.256;2022-09-01T23:53:47;1026.7;;;10.5;63.2
74435;BME280;62867;52.038;29.256;2022-09-01T23:58:47;1026.7;;;10.4;63.1
